sensor_id;sensor_type;location;lat;lon;timestamp;pressure;altitude;pressure_sealevel;temperature;humidity
75585;BME280;64162;53.508;10.476;2022-11-23T00:01:21;99572.25;;;2.59;84.79
75585;BME280;64162;53.508;10.476;2022-11-23T00:03:50;99578.50;;;2.56;84.76
75585;BME280;64162;53.508;10.476;2022-11-23T00:06:18;99574.63;;;2.49;85.03
75585;BME280;64162;53.508;10.476;2022-11-23T00:08:46;99573.28;;;2.56;84.70
75585;BME280;64162;53.508;10.476;2022-11-23T00:11:13;99575.88;;;2.56;85.17
75585;BME280;64162;53.508;10.476;2022-11-23T00:13:40;99573.09;;;2.59;84.61
75585;BME280;64162;53.508;10.476;2022-11-23T00:16:08;99595.16;;;2.67;84.77
75585;BME280;64162;53.508;10.476;2022-11-23T00:18:35;99595.66;;;2.59;84.60
75585;BME280;64162;53.508;10.476;2022-11-23T00:21:20;99586.44;;;2.68;84.68
75585;BME280;64162;53.508;10.476;2022-11-23T00:23:47;99584.75;;;2.67;84.39
75585;BME280;64162;53.508;10.476;2022-11-23T00:26:15;99582.81;;;2.70;84.47
75585;BME280;64162;53.508;10.476;2022-11-23T00:28:42;99590.56;;;2.57;84.69
75585;BME280;64162;53.508;10.476;2022-11-23T00:31:11;99581.44;;;2.64;84.57
75585;BME280;64162;53.508;10.476;2022-11-23T00:33:39;99581.13;;;2.69;85.16
75585;BME280;64162;53.508;10.476;2022-11-23T00:36:13;99569.47;;;2.62;84.79
75585;BME280;64162;53.508;10.476;2022-11-23T00:38:41;99576.66;;;2.71;84.41
75585;BME280;64162;53.508;10.476;2022-11-23T00:41:11;99585.00;;;2.76;84.56
75585;BME280;64162;53.508;10.476;2022-11-23T00:43:38;99577.84;;;2.80;84.61
75585;BME280;64162;53.508;10.476;2022-11-23T00:46:09;99572.19;;;2.73;84.68
75585;BME280;64162;53.508;10.476;2022-11-23T00:48:37;99584.38;;;2.73;84.49
75585;BME280;64162;53.508;10.476;2022-11-23T00:51:06;99583.13;;;2.78;84.05
75585;BME280;64162;53.508;10.476;2022-11-23T00:53:33;99582.22;;;2.79;84.39
75585;BME280;64162;53.508;10.476;2022-11-23T00:56:00;99581.38;;;2.79;84.46
75585;BME280;64162;53.508;10.476;2022-11-23T00:58:26;99579.31;;;2.84;83.86
75585;BME280;64162;53.508;10.476;2022-11-23T01:03:34;99582.75;;;2.84;84.44
75585;BME280;64162;53.508;10.476;2022-11-23T01:06:06;99576.16;;;2.91;83.90
75585;BME280;64162;53.508;10.476;2022-11-23T01:08:33;99578.88;;;2.90;83.91
75585;BME280;64162;53.508;10.476;2022-11-23T01:11:02;99580.66;;;2.89;84.03
75585;BME280;64162;53.508;10.476;2022-11-23T01:13:34;99580.53;;;2.91;84.49
75585;BME280;64162;53.508;10.476;2022-11-23T01:16:01;99583.16;;;2.91;84.15
75585;BME280;64162;53.508;10.476;2022-11-23T01:18:27;99593.56;;;2.91;84.39
75585;BME280;64162;53.508;10.476;2022-11-23T01:20:54;99582.63;;;2.98;84.26
75585;BME280;64162;53.508;10.476;2022-11-23T01:23:20;99587.75;;;3.00;84.02
75585;BME280;64162;53.508;10.476;2022-11-23T01:25:47;99589.31;;;3.03;83.93
75585;BME280;64162;53.508;10.476;2022-11-23T01:28:15;99584.84;;;3.05;84.35
75585;BME280;64162;53.508;10.476;2022-11-23T01:30:42;99585.38;;;3.10;83.46
75585;BME280;64162;53.508;10.476;2022-11-23T01:33:08;99586.31;;;3.09;83.75
75585;BME280;64162;53.508;10.476;2022-11-23T01:35:35;99586.50;;;3.06;83.42
75585;BME280;64162;53.508;10.476;2022-11-23T01:38:01;99583.81;;;3.07;83.86
75585;BME280;64162;53.508;10.476;2022-11-23T01:40:28;99584.63;;;3.08;83.93
75585;BME280;64162;53.508;10.476;2022-11-23T01:42:57;99580.06;;;3.11;83.68
75585;BME280;64162;53.508;10.476;2022-11-23T01:45:37;99574.22;;;3.08;83.77
75585;BME280;64162;53.508;10.476;2022-11-23T01:48:13;99568.50;;;3.03;83.44
75585;BME280;64162;53.508;10.476;2022-11-23T01:50:42;99577.25;;;3.02;83.61
75585;BME280;64162;53.508;10.476;2022-11-23T01:53:09;99573.16;;;2.97;83.66
75585;BME280;64162;53.508;10.476;2022-11-23T01:55:36;99577.84;;;2.92;83.26
75585;BME280;64162;53.508;10.476;2022-11-23T01:58:05;99583.78;;;2.94;83.98
75585;BME280;64162;53.508;10.476;2022-11-23T02:00:35;99584.22;;;2.88;83.56
75585;BME280;64162;53.508;10.476;2022-11-23T02:03:03;99583.16;;;2.91;83.86
75585;BME280;64162;53.508;10.476;2022-11-23T02:05:34;99582.84;;;2.95;84.04
75585;BME280;64162;53.508;10.476;2022-11-23T02:08:04;99583.88;;;2.93;84.14
75585;BME280;64162;53.508;10.476;2022-11-23T02:10:32;99588.16;;;2.94;84.40
75585;BME280;64162;53.508;10.476;2022-11-23T02:13:02;99585.16;;;3.00;84.52
75585;BME280;64162;53.508;10.476;2022-11-23T02:15:30;99585.69;;;3.05;84.05
75585;BME280;64162;53.508;10.476;2022-11-23T02:17:58;99578.69;;;3.06;84.38
75585;BME280;64162;53.508;10.476;2022-11-23T02:20:25;99584.09;;;3.03;84.22
75585;BME280;64162;53.508;10.476;2022-11-23T02:23:13;99580.38;;;3.07;83.85
75585;BME280;64162;53.508;10.476;2022-11-23T02:28:16;99579.84;;;3.02;83.85
75585;BME280;64162;53.508;10.476;2022-11-23T02:30:49;99587.75;;;3.00;84.20
75585;BME280;64162;53.508;10.476;2022-11-23T02:33:16;99587.53;;;3.03;83.76
75585;BME280;64162;53.508;10.476;2022-11-23T02:36:01;99588.81;;;3.10;83.51
75585;BME280;64162;53.508;10.476;2022-11-23T02:38:32;99589.22;;;3.17;83.54
75585;BME280;64162;53.508;10.476;2022-11-23T02:40:59;99593.72;;;3.15;84.07
75585;BME280;64162;53.508;10.476;2022-11-23T02:43:26;99591.84;;;3.17;83.71
75585;BME280;64162;53.508;10.476;2022-11-23T02:45:58;99582.47;;;3.14;nan
75585;BME280;64162;53.508;10.476;2022-11-23T02:48:27;99588.72;;;3.12;83.82
75585;BME280;64162;53.508;10.476;2022-11-23T02:50:54;99588.31;;;3.18;83.48
75585;BME280;64162;53.508;10.476;2022-11-23T02:53:22;99584.75;;;3.19;83.60
75585;BME280;64162;53.508;10.476;2022-11-23T02:55:52;99583.94;;;3.18;83.36
75585;BME280;64162;53.508;10.476;2022-11-23T02:58:18;99588.19;;;3.19;83.76
75585;BME280;64162;53.508;10.476;2022-11-23T03:00:45;99581.75;;;3.25;83.83
75585;BME280;64162;53.508;10.476;2022-11-23T03:03:11;99583.69;;;3.09;84.21
75585;BME280;64162;53.508;10.476;2022-11-23T03:05:38;99591.31;;;3.12;84.05
75585;BME280;64162;53.508;10.476;2022-11-23T03:08:05;99591.84;;;3.17;84.51
75585;BME280;64162;53.508;10.476;2022-11-23T03:10:32;99589.97;;;3.19;84.51
75585;BME280;64162;53.508;10.476;2022-11-23T03:12:59;99594.84;;;3.11;84.32
75585;BME280;64162;53.508;10.476;2022-11-23T03:15:29;99586.19;;;3.10;84.39
75585;BME280;64162;53.508;10.476;2022-11-23T03:17:57;99586.53;;;3.18;84.52
75585;BME280;64162;53.508;10.476;2022-11-23T03:20:24;99590.06;;;3.17;84.39
75585;BME280;64162;53.508;10.476;2022-11-23T03:22:51;99582.06;;;3.20;84.79
75585;BME280;64162;53.508;10.476;2022-11-23T03:25:20;99596.75;;;3.21;84.30
75585;BME280;64162;53.508;10.476;2022-11-23T03:27:49;99588.19;;;3.19;84.47
75585;BME280;64162;53.508;10.476;2022-11-23T03:30:17;99584.03;;;3.17;84.15
75585;BME280;64162;53.508;10.476;2022-11-23T03:32:43;99594.22;;;3.20;84.65
75585;BME280;64162;53.508;10.476;2022-11-23T03:35:10;99594.75;;;3.12;84.87
75585;BME280;64162;53.508;10.476;2022-11-23T03:37:54;99587.66;;;3.14;84.57
75585;BME280;64162;53.508;10.476;2022-11-23T03:40:20;99594.03;;;3.23;84.55
75585;BME280;64162;53.508;10.476;2022-11-23T03:43:11;99586.31;;;3.21;84.24
75585;BME280;64162;53.508;10.476;2022-11-23T03:45:38;99596.00;;;3.19;84.13
75585;BME280;64162;53.508;10.476;2022-11-23T03:48:05;99591.00;;;3.16;84.42
75585;BME280;64162;53.508;10.476;2022-11-23T03:50:31;99596.44;;;3.26;84.75
75585;BME280;64162;53.508;10.476;2022-11-23T03:52:58;99593.19;;;3.22;84.63
75585;BME280;64162;53.508;10.476;2022-11-23T03:55:27;99586.53;;;3.31;84.26
75585;BME280;64162;53.508;10.476;2022-11-23T03:57:53;99591.72;;;3.18;84.23
75585;BME280;64162;53.508;10.476;2022-11-23T04:00:29;99594.75;;;3.25;83.79
75585;BME280;64162;53.508;10.476;2022-11-23T04:02:56;99588.53;;;3.27;84.09
75585;BME280;64162;53.508;10.476;2022-11-23T04:05:42;99591.44;;;3.23;84.42
75585;BME280;64162;53.508;10.476;2022-11-23T04:08:24;99595.69;;;3.24;84.63
75585;BME280;64162;53.508;10.476;2022-11-23T04:10:57;99586.75;;;3.28;83.90
75585;BME280;64162;53.508;10.476;2022-11-23T04:13:35;99587.59;;;3.28;83.94
75585;BME280;64162;53.508;10.476;2022-11-23T04:16:01;99587.59;;;3.28;84.58
75585;BME280;64162;53.508;10.476;2022-11-23T04:18:28;99581.66;;;3.26;84.08
75585;BME280;64162;53.508;10.476;2022-11-23T04:20:55;99574.88;;;3.24;83.52
75585;BME280;64162;53.508;10.476;2022-11-23T04:23:22;99582.38;;;3.28;83.62
75585;BME280;64162;53.508;10.476;2022-11-23T04:25:49;99576.97;;;3.19;83.45
75585;BME280;64162;53.508;10.476;2022-11-23T04:28:17;99582.47;;;3.14;83.69
75585;BME280;64162;53.508;10.476;2022-11-23T04:30:45;99586.09;;;3.12;83.59
75585;BME280;64162;53.508;10.476;2022-11-23T04:33:12;99583.91;;;3.06;84.42
75585;BME280;64162;53.508;10.476;2022-11-23T04:35:38;99581.09;;;3.09;83.84
75585;BME280;64162;53.508;10.476;2022-11-23T04:38:06;99581.53;;;3.15;84.07
75585;BME280;64162;53.508;10.476;2022-11-23T04:40:32;99589.44;;;3.14;84.16
75585;BME280;64162;53.508;10.476;2022-11-23T04:43:00;99585.28;;;3.11;84.43
75585;BME280;64162;53.508;10.476;2022-11-23T04:45:30;99589.34;;;3.15;83.65
75585;BME280;64162;53.508;10.476;2022-11-23T04:48:01;99594.03;;;3.23;84.04
75585;BME280;64162;53.508;10.476;2022-11-23T04:50:27;99596.09;;;3.18;84.20
75585;BME280;64162;53.508;10.476;2022-11-23T04:52:55;99590.81;;;3.19;84.31
75585;BME280;64162;53.508;10.476;2022-11-23T04:55:28;99595.28;;;3.17;83.96
75585;BME280;64162;53.508;10.476;2022-11-23T04:57:59;99581.13;;;3.21;84.29
75585;BME280;64162;53.508;10.476;2022-11-23T05:00:29;99590.50;;;3.24;83.32
75585;BME280;64162;53.508;10.476;2022-11-23T05:03:00;99586.13;;;3.24;83.58
75585;BME280;64162;53.508;10.476;2022-11-23T05:05:31;99595.16;;;3.19;83.90
75585;BME280;64162;53.508;10.476;2022-11-23T05:07:59;99588.72;;;3.12;83.99
75585;BME280;64162;53.508;10.476;2022-11-23T05:10:37;99584.88;;;3.17;83.93
75585;BME280;64162;53.508;10.476;2022-11-23T05:13:04;99590.28;;;3.14;84.36
75585;BME280;64162;53.508;10.476;2022-11-23T05:15:31;99591.72;;;3.18;84.42
75585;BME280;64162;53.508;10.476;2022-11-23T05:18:02;99589.22;;;3.17;84.61
75585;BME280;64162;53.508;10.476;2022-11-23T05:20:29;99597.78;;;3.19;84.04
75585;BME280;64162;53.508;10.476;2022-11-23T05:22:56;99595.28;;;3.17;84.55
75585;BME280;64162;53.508;10.476;2022-11-23T05:25:24;99599.97;;;3.25;84.36
75585;BME280;64162;53.508;10.476;2022-11-23T05:27:59;99600.69;;;3.27;84.11
75585;BME280;64162;53.508;10.476;2022-11-23T05:30:29;99591.84;;;3.29;84.39
75585;BME280;64162;53.508;10.476;2022-11-23T05:33:01;99594.97;;;3.35;84.50
75585;BME280;64162;53.508;10.476;2022-11-23T05:35:29;99604.66;;;3.33;84.22
75585;BME280;64162;53.508;10.476;2022-11-23T05:37:56;99595.91;;;3.34;84.30
75585;BME280;64162;53.508;10.476;2022-11-23T05:40:22;99591.66;;;3.33;84.19
75585;BME280;64162;53.508;10.476;2022-11-23T05:42:54;99595.72;;;3.37;83.96
75585;BME280;64162;53.508;10.476;2022-11-23T05:45:21;99591.25;;;3.39;84.29
75585;BME280;64162;53.508;10.476;2022-11-23T05:47:54;99600.19;;;3.35;83.78
75585;BME280;64162;53.508;10.476;2022-11-23T05:50:49;99591.34;;;3.37;84.36
75585;BME280;64162;53.508;10.476;2022-11-23T05:53:37;99598.00;;;3.41;84.38
75585;BME280;64162;53.508;10.476;2022-11-23T05:56:13;99598.63;;;3.45;84.60
75585;BME280;64162;53.508;10.476;2022-11-23T05:59:00;99596.63;;;3.48;83.81
75585;BME280;64162;53.508;10.476;2022-11-23T06:01:26;99593.72;;;3.53;84.10
75585;BME280;64162;53.508;10.476;2022-11-23T06:03:57;99593.19;;;3.60;83.57
75585;BME280;64162;53.508;10.476;2022-11-23T06:06:24;99602.69;;;3.61;83.67
75585;BME280;64162;53.508;10.476;2022-11-23T06:08:50;99604.34;;;3.62;83.84
75585;BME280;64162;53.508;10.476;2022-11-23T06:11:17;99605.50;;;3.71;nan
75585;BME280;64162;53.508;10.476;2022-11-23T06:13:46;99606.31;;;3.72;83.91
75585;BME280;64162;53.508;10.476;2022-11-23T06:16:14;99599.97;;;3.76;84.34
75585;BME280;64162;53.508;10.476;2022-11-23T06:18:52;99591.84;;;3.80;84.55
75585;BME280;64162;53.508;10.476;2022-11-23T06:21:19;99597.16;;;3.79;84.63
75585;BME280;64162;53.508;10.476;2022-11-23T06:23:46;99592.97;;;3.76;84.73
75585;BME280;64162;53.508;10.476;2022-11-23T06:26:13;99594.44;;;3.80;84.63
75585;BME280;64162;53.508;10.476;2022-11-23T06:28:40;99600.38;;;3.82;84.58
75585;BME280;64162;53.508;10.476;2022-11-23T06:31:08;99600.16;;;3.85;84.50
75585;BME280;64162;53.508;10.476;2022-11-23T06:33:35;99600.56;;;3.92;84.84
75585;BME280;64162;53.508;10.476;2022-11-23T06:36:02;99613.59;;;3.92;84.54
75585;BME280;64162;53.508;10.476;2022-11-23T06:38:37;99612.16;;;3.88;84.89
75585;BME280;64162;53.508;10.476;2022-11-23T06:41:11;99612.56;;;3.94;84.68
75585;BME280;64162;53.508;10.476;2022-11-23T06:43:38;99625.69;;;3.93;84.85
75585;BME280;64162;53.508;10.476;2022-11-23T06:46:05;99617.88;;;3.93;84.72
75585;BME280;64162;53.508;10.476;2022-11-23T06:48:37;99623.59;;;3.98;85.05
75585;BME280;64162;53.508;10.476;2022-11-23T06:51:04;99619.00;;;4.02;85.06
75585;BME280;64162;53.508;10.476;2022-11-23T06:53:31;99623.81;;;3.95;84.72
75585;BME280;64162;53.508;10.476;2022-11-23T06:56:02;99627.97;;;3.97;85.07
75585;BME280;64162;53.508;10.476;2022-11-23T06:58:30;99617.13;;;4.04;84.77
75585;BME280;64162;53.508;10.476;2022-11-23T07:01:00;99624.44;;;3.98;84.91
75585;BME280;64162;53.508;10.476;2022-11-23T07:03:31;99625.16;;;4.01;84.86
75585;BME280;64162;53.508;10.476;2022-11-23T07:06:07;99626.22;;;3.98;84.83
75585;BME280;64162;53.508;10.476;2022-11-23T07:08:35;99636.31;;;4.03;84.79
75585;BME280;64162;53.508;10.476;2022-11-23T07:11:19;99627.78;;;4.01;85.30
75585;BME280;64162;53.508;10.476;2022-11-23T07:13:46;99634.41;;;4.05;85.58
75585;BME280;64162;53.508;10.476;2022-11-23T07:16:12;99635.22;;;4.05;84.77
75585;BME280;64162;53.508;10.476;2022-11-23T07:18:40;99642.63;;;4.11;85.04
75585;BME280;64162;53.508;10.476;2022-11-23T07:21:06;99638.25;;;4.12;85.34
75585;BME280;64162;53.508;10.476;2022-11-23T07:23:33;99643.16;;;4.16;85.13
75585;BME280;64162;53.508;10.476;2022-11-23T07:26:04;99643.97;;;4.17;85.18
75585;BME280;64162;53.508;10.476;2022-11-23T07:28:30;99637.81;;;4.18;85.12
75585;BME280;64162;53.508;10.476;2022-11-23T07:30:57;99637.19;;;4.27;84.82
75585;BME280;64162;53.508;10.476;2022-11-23T07:33:23;99644.91;;;4.28;84.94
75585;BME280;64162;53.508;10.476;2022-11-23T07:35:50;99644.50;;;4.22;84.81
75585;BME280;64162;53.508;10.476;2022-11-23T07:38:16;99638.03;;;4.27;84.91
75585;BME280;64162;53.508;10.476;2022-11-23T07:40:47;99645.81;;;4.40;84.94
75585;BME280;64162;53.508;10.476;2022-11-23T07:43:26;99644.56;;;4.46;84.60
75585;BME280;64162;53.508;10.476;2022-11-23T07:45:56;99651.81;;;4.53;85.04
75585;BME280;64162;53.508;10.476;2022-11-23T07:48:23;99649.13;;;4.55;84.51
75585;BME280;64162;53.508;10.476;2022-11-23T07:50:53;99650.38;;;4.49;85.05
75585;BME280;64162;53.508;10.476;2022-11-23T07:53:20;99658.50;;;4.57;84.96
75585;BME280;64162;53.508;10.476;2022-11-23T07:55:46;99652.81;;;4.63;84.93
75585;BME280;64162;53.508;10.476;2022-11-23T07:58:13;99654.47;;;4.64;84.85
75585;BME280;64162;53.508;10.476;2022-11-23T08:00:39;99663.03;;;4.67;84.58
75585;BME280;64162;53.508;10.476;2022-11-23T08:03:10;99661.66;;;4.74;84.16
75585;BME280;64162;53.508;10.476;2022-11-23T08:05:51;99665.59;;;4.79;84.43
75585;BME280;64162;53.508;10.476;2022-11-23T08:08:18;99659.44;;;4.80;84.07
75585;BME280;64162;53.508;10.476;2022-11-23T08:10:44;99664.66;;;4.80;84.09
75585;BME280;64162;53.508;10.476;2022-11-23T08:13:13;99660.69;;;4.75;84.60
75585;BME280;64162;53.508;10.476;2022-11-23T08:15:40;99665.97;;;4.86;84.46
75585;BME280;64162;53.508;10.476;2022-11-23T08:18:06;99665.16;;;4.85;84.41
75585;BME280;64162;53.508;10.476;2022-11-23T08:20:33;99665.94;;;4.98;84.01
75585;BME280;64162;53.508;10.476;2022-11-23T08:23:00;99675.00;;;5.06;84.05
75585;BME280;64162;53.508;10.476;2022-11-23T08:25:27;99668.88;;;5.18;84.59
75585;BME280;64162;53.508;10.476;2022-11-23T08:27:55;99668.63;;;5.21;84.04
75585;BME280;64162;53.508;10.476;2022-11-23T08:30:22;99674.34;;;5.26;83.94
75585;BME280;64162;53.508;10.476;2022-11-23T08:32:48;99669.22;;;5.24;83.87
75585;BME280;64162;53.508;10.476;2022-11-23T08:35:15;99668.09;;;5.40;83.47
75585;BME280;64162;53.508;10.476;2022-11-23T08:37:41;99674.75;;;5.44;83.44
75585;BME280;64162;53.508;10.476;2022-11-23T08:40:08;99673.69;;;5.46;82.76
75585;BME280;64162;53.508;10.476;2022-11-23T08:42:35;99674.41;;;5.48;83.54
75585;BME280;64162;53.508;10.476;2022-11-23T08:45:02;99673.59;;;5.48;83.59
75585;BME280;64162;53.508;10.476;2022-11-23T08:47:31;99676.78;;;5.51;83.36
75585;BME280;64162;53.508;10.476;2022-11-23T08:49:58;99679.78;;;5.58;82.83
75585;BME280;64162;53.508;10.476;2022-11-23T08:52:35;99672.81;;;5.70;83.30
75585;BME280;64162;53.508;10.476;2022-11-23T08:55:02;99677.81;;;5.73;82.86
75585;BME280;64162;53.508;10.476;2022-11-23T08:57:29;99674.97;;;5.76;83.00
75585;BME280;64162;53.508;10.476;2022-11-23T08:59:55;99672.97;;;5.90;82.71
75585;BME280;64162;53.508;10.476;2022-11-23T09:02:21;99674.84;;;5.88;82.91
75585;BME280;64162;53.508;10.476;2022-11-23T09:04:48;99670.13;;;5.93;82.60
75585;BME280;64162;53.508;10.476;2022-11-23T09:07:14;99675.22;;;5.95;82.66
75585;BME280;64162;53.508;10.476;2022-11-23T09:09:41;99673.94;;;6.12;82.50
75585;BME280;64162;53.508;10.476;2022-11-23T09:12:07;99680.25;;;6.09;82.16
75585;BME280;64162;53.508;10.476;2022-11-23T09:14:34;99677.97;;;6.16;82.21
75585;BME280;64162;53.508;10.476;2022-11-23T09:17:01;99678.56;;;6.31;81.99
75585;BME280;64162;53.508;10.476;2022-11-23T09:19:27;99677.03;;;6.28;82.18
75585;BME280;64162;53.508;10.476;2022-11-23T09:21:54;99680.22;;;6.43;82.27
75585;BME280;64162;53.508;10.476;2022-11-23T09:24:20;99678.66;;;6.40;82.50
75585;BME280;64162;53.508;10.476;2022-11-23T09:26:48;99680.91;;;6.45;81.88
75585;BME280;64162;53.508;10.476;2022-11-23T09:29:15;99682.44;;;6.58;81.89
75585;BME280;64162;53.508;10.476;2022-11-23T09:31:41;99682.69;;;6.55;81.91
75585;BME280;64162;53.508;10.476;2022-11-23T09:34:11;99694.00;;;6.56;82.15
75585;BME280;64162;53.508;10.476;2022-11-23T09:36:38;99690.53;;;6.67;81.54
75585;BME280;64162;53.508;10.476;2022-11-23T09:39:05;99690.75;;;6.75;81.20
75585;BME280;64162;53.508;10.476;2022-11-23T09:44:41;99692.22;;;7.00;81.38
75585;BME280;64162;53.508;10.476;2022-11-23T09:47:25;99694.72;;;7.01;80.92
75585;BME280;64162;53.508;10.476;2022-11-23T09:52:34;99706.56;;;7.16;80.78
75585;BME280;64162;53.508;10.476;2022-11-23T09:55:23;99699.19;;;7.21;79.98
75585;BME280;64162;53.508;10.476;2022-11-23T09:57:58;99693.44;;;7.27;80.48
75585;BME280;64162;53.508;10.476;2022-11-23T10:00:29;99697.94;;;7.37;80.31
75585;BME280;64162;53.508;10.476;2022-11-23T10:03:00;99698.59;;;7.50;80.26
75585;BME280;64162;53.508;10.476;2022-11-23T10:05:31;99698.84;;;7.47;78.91
75585;BME280;64162;53.508;10.476;2022-11-23T10:08:09;99700.41;;;7.59;79.74
75585;BME280;64162;53.508;10.476;2022-11-23T10:10:43;99695.63;;;7.64;78.01
75585;BME280;64162;53.508;10.476;2022-11-23T10:13:42;99698.44;;;7.72;79.24
75585;BME280;64162;53.508;10.476;2022-11-23T10:16:49;99695.19;;;7.80;78.73
75585;BME280;64162;53.508;10.476;2022-11-23T10:19:50;99696.97;;;7.79;78.96
75585;BME280;64162;53.508;10.476;2022-11-23T10:22:30;99698.06;;;7.77;79.63
75585;BME280;64162;53.508;10.476;2022-11-23T10:25:00;99700.31;;;7.81;77.69
75585;BME280;64162;53.508;10.476;2022-11-23T10:27:33;99702.66;;;7.84;79.51
75585;BME280;64162;53.508;10.476;2022-11-23T10:30:00;99696.84;;;7.81;78.53
75585;BME280;64162;53.508;10.476;2022-11-23T10:32:31;99695.25;;;7.89;78.61
75585;BME280;64162;53.508;10.476;2022-11-23T10:35:14;99699.28;;;7.93;78.96
75585;BME280;64162;53.508;10.476;2022-11-23T10:37:41;99704.25;;;7.97;79.16
75585;BME280;64162;53.508;10.476;2022-11-23T10:40:24;99711.75;;;8.01;78.99
75585;BME280;64162;53.508;10.476;2022-11-23T10:42:58;99695.63;;;8.06;77.90
75585;BME280;64162;53.508;10.476;2022-11-23T10:45:27;99704.22;;;8.17;78.09
75585;BME280;64162;53.508;10.476;2022-11-23T10:47:57;99702.53;;;8.37;77.73
75585;BME280;64162;53.508;10.476;2022-11-23T10:50:31;99696.72;;;8.34;77.09
75585;BME280;64162;53.508;10.476;2022-11-23T11:01:15;99702.72;;;8.45;76.78
75585;BME280;64162;53.508;10.476;2022-11-23T11:03:42;99707.88;;;8.56;78.10
75585;BME280;64162;53.508;10.476;2022-11-23T11:06:09;99703.84;;;8.52;77.71
75585;BME280;64162;53.508;10.476;2022-11-23T11:09:04;99699.13;;;8.46;77.77
75585;BME280;64162;53.508;10.476;2022-11-23T11:11:46;99697.94;;;8.60;76.72
75585;BME280;64162;53.508;10.476;2022-11-23T11:14:21;99711.19;;;8.68;76.42
75585;BME280;64162;53.508;10.476;2022-11-23T11:16:53;99704.00;;;8.60;76.40
75585;BME280;64162;53.508;10.476;2022-11-23T11:19:34;99707.06;;;8.75;77.57
75585;BME280;64162;53.508;10.476;2022-11-23T11:22:03;99702.13;;;8.82;77.27
75585;BME280;64162;53.508;10.476;2022-11-23T11:24:49;99706.53;;;8.81;76.63
75585;BME280;64162;53.508;10.476;2022-11-23T11:27:19;99698.13;;;8.87;76.07
75585;BME280;64162;53.508;10.476;2022-11-23T11:29:50;99702.00;;;8.93;74.87
75585;BME280;64162;53.508;10.476;2022-11-23T11:37:43;99700.06;;;8.95;76.14
75585;BME280;64162;53.508;10.476;2022-11-23T11:40:29;99694.94;;;8.93;76.81
75585;BME280;64162;53.508;10.476;2022-11-23T11:45:37;99690.00;;;9.10;76.67
75585;BME280;64162;53.508;10.476;2022-11-23T11:48:22;99697.47;;;9.14;76.89
75585;BME280;64162;53.508;10.476;2022-11-23T11:53:54;99705.91;;;9.18;77.08
75585;BME280;64162;53.508;10.476;2022-11-23T11:56:43;99699.41;;;9.22;77.26
75585;BME280;64162;53.508;10.476;2022-11-23T11:59:27;99699.25;;;9.43;75.57
75585;BME280;64162;53.508;10.476;2022-11-23T12:04:44;99702.72;;;9.43;75.46
75585;BME280;64162;53.508;10.476;2022-11-23T12:07:23;99711.56;;;9.33;76.22
75585;BME280;64162;53.508;10.476;2022-11-23T12:09:59;99706.84;;;9.26;76.35
75585;BME280;64162;53.508;10.476;2022-11-23T12:12:33;99699.09;;;9.25;77.59
75585;BME280;64162;53.508;10.476;2022-11-23T12:15:01;99698.16;;;9.16;76.58
75585;BME280;64162;53.508;10.476;2022-11-23T12:17:54;99690.81;;;9.10;77.20
75585;BME280;64162;53.508;10.476;2022-11-23T12:26:30;99691.38;;;9.04;77.89
75585;BME280;64162;53.508;10.476;2022-11-23T12:31:47;99689.00;;;8.91;77.76
75585;BME280;64162;53.508;10.476;2022-11-23T12:37:09;99689.25;;;8.79;78.57
75585;BME280;64162;53.508;10.476;2022-11-23T12:39:59;99689.69;;;8.84;78.21
75585;BME280;64162;53.508;10.476;2022-11-23T12:42:41;99694.13;;;9.03;78.20
75585;BME280;64162;53.508;10.476;2022-11-23T12:45:18;99691.91;;;8.88;79.02
75585;BME280;64162;53.508;10.476;2022-11-23T12:48:06;99682.91;;;8.81;78.60
75585;BME280;64162;53.508;10.476;2022-11-23T12:50:55;99679.81;;;8.67;78.24
75585;BME280;64162;53.508;10.476;2022-11-23T12:53:33;99685.88;;;8.48;78.87
75585;BME280;64162;53.508;10.476;2022-11-23T12:56:16;99676.22;;;8.27;78.41
75585;BME280;64162;53.508;10.476;2022-11-23T12:58:47;99679.91;;;8.15;79.42
75585;BME280;64162;53.508;10.476;2022-11-23T13:01:20;99679.13;;;7.94;79.32
75585;BME280;64162;53.508;10.476;2022-11-23T13:18:03;99676.97;;;7.37;80.87
75585;BME280;64162;53.508;10.476;2022-11-23T13:23:18;99671.22;;;7.43;81.65
75585;BME280;64162;53.508;10.476;2022-11-23T13:28:53;99681.44;;;7.46;81.07
75585;BME280;64162;53.508;10.476;2022-11-23T13:31:32;99673.06;;;7.31;81.34
75585;BME280;64162;53.508;10.476;2022-11-23T13:34:03;99666.41;;;7.27;80.63
75585;BME280;64162;53.508;10.476;2022-11-23T13:36:59;99672.72;;;7.24;81.69
75585;BME280;64162;53.508;10.476;2022-11-23T13:42:17;99677.75;;;7.16;81.40
75585;BME280;64162;53.508;10.476;2022-11-23T13:44:43;99666.13;;;7.09;82.13
75585;BME280;64162;53.508;10.476;2022-11-23T13:49:44;99685.03;;;7.13;81.33
75585;BME280;64162;53.508;10.476;2022-11-23T13:57:43;99678.09;;;7.23;80.94
75585;BME280;64162;53.508;10.476;2022-11-23T14:09:10;99684.16;;;7.23;80.42
75585;BME280;64162;53.508;10.476;2022-11-23T14:11:55;99679.63;;;7.25;81.31
75585;BME280;64162;53.508;10.476;2022-11-23T14:14:30;99683.84;;;7.17;80.64
75585;BME280;64162;53.508;10.476;2022-11-23T14:26:08;99682.44;;;7.02;81.22
75585;BME280;64162;53.508;10.476;2022-11-23T14:29:04;99699.50;;;6.96;80.89
75585;BME280;64162;53.508;10.476;2022-11-23T14:31:45;99702.81;;;6.98;81.32
75585;BME280;64162;53.508;10.476;2022-11-23T14:37:24;99700.72;;;6.92;81.28
75585;BME280;64162;53.508;10.476;2022-11-23T14:40:04;99702.03;;;6.86;81.63
75585;BME280;64162;53.508;10.476;2022-11-23T14:42:34;99700.75;;;6.81;82.08
75585;BME280;64162;53.508;10.476;2022-11-23T14:45:06;99700.03;;;6.79;81.65
75585;BME280;64162;53.508;10.476;2022-11-23T14:47:36;99693.84;;;6.80;81.74
75585;BME280;64162;53.508;10.476;2022-11-23T14:50:03;99699.31;;;6.77;82.00
75585;BME280;64162;53.508;10.476;2022-11-23T14:52:32;99701.00;;;6.78;81.33
75585;BME280;64162;53.508;10.476;2022-11-23T14:55:03;99698.63;;;6.75;82.20
75585;BME280;64162;53.508;10.476;2022-11-23T14:57:39;99699.09;;;6.69;81.63